aviador You're here:

VNKT Decoded Metar

KATHMANDU in NEPAL
Report Time2015-07-06 22:50:00
UTC Time2015-07-07 00:15:06
Flight Rules Old
WindCalm
Visibility7000 m
Phenomena:N/A
Clouds:Few 010 Hf
Scattered 025 Hf
Overcast 090 Hf
Ceiling9,000 ft
Temp20°C (ISA +14)
Dew Point20°C (100% RH)
QNH1008 hPa
Density Alt6,476 ft
Elevation4,386 ft
Report Wrong Elevation
Raw Report
METAR VNKT 062250Z 00000KT 7000 FEW010 SCT025 OVC090 20/20 Q1008
NOSIG=

Extra information for VNKT:More info

Metar Taf Metar & Taf Last 4 Metars F.Rules Stats Wind Profile Meteogram Temp Stats Airport Information Weather charts Add Link Nearby VenuesMetar ALERT Operation Metar Decoded Social comments